Time;durP1;ratioP1;P1;durP2;ratioP2;P2;SDS_P1;SDS_P2;PMS_P1;PMS_P2;Temp;Humidity;BMP_temperature;BMP_pressure;BME280_temperature;BME280_humidity;BME280_pressure;Samples;Min_cycle;Max_cycle;Signal;HPM_P1;HPM_P2
2022/08/14 00:04:26;;;;;;;2.00;1.20;;;23.80;74.60;;;;;;6698842;88;20496;-78
2022/08/14 00:14:27;;;;;;;2.05;1.20;;;23.70;75.60;;;;;;6697966;88;20249;-77
2022/08/14 00:24:27;;;;;;;2.07;1.20;;;23.40;76.10;;;;;;6697059;88;20253;-77
2022/08/14 00:34:28;;;;;;;1.90;1.20;;;23.30;77.00;;;;;;6628416;88;20215;-77
2022/08/14 00:44:29;;;;;;;1.83;1.25;;;23.10;78.30;;;;;;6629205;88;20326;-76
2022/08/14 00:54:30;;;;;;;2.00;1.10;;;22.90;79.80;;;;;;6628250;89;20229;-79
2022/08/14 01:04:34;;;;;;;2.35;1.20;;;22.50;81.50;;;;;;6628285;89;20232;-78
2022/08/14 01:14:35;;;;;;;1.37;1.02;;;22.60;83.50;;;;;;6631373;89;20192;-78
2022/08/14 01:24:35;;;;;;;1.80;1.15;;;22.60;83.90;;;;;;6635647;89;20234;-77
2022/08/14 01:34:36;;;;;;;2.47;1.30;;;22.40;85.30;;;;;;6645468;88;20309;-78
2022/08/14 01:44:37;;;;;;;2.17;1.30;;;22.40;88.30;;;;;;6632773;89;20382;-78
2022/08/14 01:54:38;;;;;;;2.03;1.20;;;22.40;90.80;;;;;;6646936;88;20689;-77
2022/08/14 02:04:39;;;;;;;1.40;1.03;;;22.10;92.50;;;;;;6629962;89;20274;-77
2022/08/14 02:14:40;;;;;;;2.70;1.60;;;22.00;94.70;;;;;;6630176;89;20512;-77
2022/08/14 02:24:40;;;;;;;2.58;1.55;;;21.70;96.70;;;;;;6630104;89;20224;-78
2022/08/14 02:34:41;;;;;;;2.10;1.40;;;21.40;98.40;;;;;;6628266;89;20200;-77
2022/08/14 02:44:43;;;;;;;2.67;1.40;;;21.30;99.40;;;;;;6629151;89;20217;-77
2022/08/14 02:54:44;;;;;;;2.12;1.35;;;21.40;99.90;;;;;;6629258;89;20204;-78
2022/08/14 03:04:46;;;;;;;2.12;1.40;;;21.50;99.90;;;;;;6643256;88;20196;-78
2022/08/14 03:14:51;;;;;;;2.40;1.27;;;21.50;99.90;;;;;;6628859;89;20192;-77
2022/08/14 03:24:51;;;;;;;1.92;1.30;;;21.20;99.90;;;;;;6628591;89;20326;-78
2022/08/14 03:34:52;;;;;;;2.30;1.27;;;20.80;99.90;;;;;;6629304;89;20297;-77
2022/08/14 03:44:52;;;;;;;1.80;1.02;;;20.60;99.90;;;;;;6629044;89;20234;-78
2022/08/14 03:54:53;;;;;;;1.95;1.30;;;20.50;99.90;;;;;;6628468;89;20276;-78
2022/08/14 04:04:53;;;;;;;2.33;1.12;;;20.50;99.90;;;;;;6627893;89;20221;-77
2022/08/14 04:14:54;;;;;;;1.90;1.20;;;20.50;99.90;;;;;;6628213;89;20211;-77
2022/08/14 04:24:55;;;;;;;1.87;1.30;;;20.60;99.90;;;;;;6627951;89;20332;-77
2022/08/14 04:34:55;;;;;;;2.30;1.30;;;20.30;99.90;;;;;;6627879;89;20196;-78
2022/08/14 04:44:57;;;;;;;2.03;1.15;;;20.40;99.90;;;;;;6627624;89;20197;-78
2022/08/14 04:54:58;;;;;;;1.80;1.10;;;20.20;99.90;;;;;;6627999;89;20273;-76
2022/08/14 05:04:59;;;;;;;2.90;1.23;;;20.30;99.90;;;;;;6628691;89;20615;-77
2022/08/14 05:14:59;;;;;;;1.98;1.12;;;20.40;99.90;;;;;;6627609;89;20216;-76
2022/08/14 05:35:04;;;;;;;1.90;1.10;;;20.60;99.90;;;;;;6742153;88;20279;-78
2022/08/14 05:45:05;;;;;;;2.08;1.08;;;20.60;99.90;;;;;;6727206;88;20199;-79
2022/08/14 05:55:08;;;;;;;2.03;1.20;;;20.70;99.90;;;;;;6730285;88;20895;-79
2022/08/14 06:05:09;;;;;;;2.33;1.45;;;21.10;99.90;;;;;;6730309;88;20188;-79
2022/08/14 06:15:10;;;;;;;2.37;1.37;;;21.90;99.90;;;;;;6736293;88;20316;-79
2022/08/14 06:25:12;;;;;;;2.42;1.50;;;22.40;99.90;;;;;;6726091;88;20173;-78
2022/08/14 06:35:14;;;;;;;2.60;1.52;;;22.90;99.90;;;;;;6739239;88;20193;-79
2022/08/14 06:45:15;;;;;;;2.35;1.52;;;23.40;99.90;;;;;;6752283;88;20259;-77
2022/08/14 06:55:19;;;;;;;2.60;1.50;;;23.60;99.90;;;;;;6746287;88;20247;-78
2022/08/14 07:15:41;;;;;;;2.78;1.90;;;24.90;99.90;;;;;;6740514;88;20193;-78
2022/08/14 07:25:42;;;;;;;2.60;1.60;;;25.40;99.90;;;;;;6738593;88;20328;-79
2022/08/14 07:35:43;;;;;;;2.22;1.60;;;25.80;99.90;;;;;;6746939;88;20250;-79
2022/08/14 07:45:44;;;;;;;2.75;1.60;;;26.40;99.30;;;;;;6738771;88;20297;-79
2022/08/14 07:55:45;;;;;;;2.75;1.73;;;27.40;97.40;;;;;;6745193;88;20240;-81
2022/08/14 08:05:46;;;;;;;3.03;1.75;;;27.10;97.10;;;;;;6752724;88;20204;-80
2022/08/14 08:15:50;;;;;;;2.15;1.70;;;27.40;97.00;;;;;;6747068;88;20484;-81
2022/08/14 08:25:51;;;;;;;2.75;1.98;;;28.00;95.80;;;;;;6728810;88;21103;-78
2022/08/14 08:35:51;;;;;;;3.05;1.80;;;28.90;94.90;;;;;;6716905;88;20313;-80
2022/08/14 08:45:57;;;;;;;2.35;1.65;;;29.10;93.50;;;;;;6672610;89;20221;-80
2022/08/14 08:55:58;;;;;;;2.87;1.70;;;29.60;92.20;;;;;;6725876;88;20248;-79
2022/08/14 09:06:02;;;;;;;2.95;1.65;;;29.30;92.10;;;;;;6707065;88;20195;-80
2022/08/14 09:16:03;;;;;;;2.00;1.60;;;30.00;91.50;;;;;;6747002;88;20185;-80
2022/08/14 09:26:04;;;;;;;1.83;1.60;;;31.90;90.10;;;;;;6745713;87;20213;-79
2022/08/14 09:36:35;;;;;;;2.45;1.75;;;33.30;86.70;;;;;;6737148;88;20366;-80
2022/08/14 09:46:36;;;;;;;2.30;1.60;;;33.90;83.30;;;;;;6730463;88;20777;-80
2022/08/14 09:56:50;;;;;;;2.30;1.50;;;34.80;79.90;;;;;;6744870;88;20288;-80
2022/08/14 10:06:51;;;;;;;1.75;1.40;;;34.90;76.10;;;;;;6745791;88;20232;-80
2022/08/14 10:16:54;;;;;;;2.20;1.70;;;35.40;75.30;;;;;;6740292;88;20259;-80
2022/08/14 10:26:57;;;;;;;1.98;1.50;;;36.70;72.30;;;;;;6738665;88;20538;-79
2022/08/14 10:37:06;;;;;;;2.92;1.70;;;36.30;72.10;;;;;;6714916;87;20364;-80
2022/08/14 10:47:09;;;;;;;2.10;1.58;;;36.20;70.20;;;;;;6744546;88;20200;-79
2022/08/14 10:57:19;;;;;;;2.00;1.48;;;34.70;70.70;;;;;;6743388;88;20234;-80
2022/08/14 11:07:20;;;;;;;1.95;1.40;;;36.20;69.60;;;;;;6751249;88;20232;-79
2022/08/14 11:17:21;;;;;;;1.77;1.30;;;37.40;68.50;;;;;;6743619;88;20408;-79
2022/08/14 11:37:26;;;;;;;2.25;1.62;;;34.80;68.90;;;;;;6744569;88;20619;-79
2022/08/14 11:47:31;;;;;;;1.80;1.30;;;34.40;70.10;;;;;;6727800;88;20192;-79
2022/08/14 11:57:31;;;;;;;1.77;1.30;;;35.20;68.80;;;;;;6717498;88;20662;-79
2022/08/14 12:07:32;;;;;;;;;;;34.80;67.30;;;;;;6732397;88;20206;-79
2022/08/14 12:17:45;;;;;;;1.80;1.40;;;37.10;65.70;;;;;;6743112;88;20058;-79
2022/08/14 12:27:48;;;;;;;1.98;1.40;;;37.10;64.30;;;;;;6730412;88;20208;-79
2022/08/14 12:37:50;;;;;;;1.77;1.30;;;35.70;64.60;;;;;;6731855;88;20181;-79
2022/08/14 12:47:59;;;;;;;1.37;1.10;;;35.30;66.50;;;;;;6742049;88;20363;-79
2022/08/14 12:58:03;;;;;;;2.27;1.23;;;35.80;65.10;;;;;;6736597;88;20194;-79
2022/08/14 13:08:05;;;;;;;1.90;1.30;;;35.50;64.50;;;;;;6742071;88;20211;-78
2022/08/14 13:18:07;;;;;;;1.58;1.30;;;35.00;65.30;;;;;;6724953;88;20619;-78
2022/08/14 13:28:10;;;;;;;1.60;1.00;;;34.90;64.30;;;;;;6721943;88;20200;-78
2022/08/14 13:38:10;;;;;;;1.40;1.10;;;35.00;64.80;;;;;;6746747;88;20277;-77
2022/08/14 13:48:11;;;;;;;1.85;1.20;;;34.60;63.90;;;;;;6745280;88;20185;-77
2022/08/14 13:58:13;;;;;;;1.60;1.10;;;34.40;64.60;;;;;;6716760;88;20316;-76
2022/08/14 14:08:15;;;;;;;1.60;1.10;;;34.70;63.80;;;;;;6749098;87;20318;-77
2022/08/14 14:18:16;;;;;;;1.67;1.10;;;34.90;64.70;;;;;;6736077;88;20239;-77
2022/08/14 14:28:18;;;;;;;1.70;1.08;;;35.00;63.50;;;;;;6717321;87;20188;-79
2022/08/14 14:38:20;;;;;;;1.70;1.25;;;35.10;62.80;;;;;;6739299;88;20615;-79
2022/08/14 14:48:22;;;;;;;3.67;1.23;;;35.90;62.70;;;;;;6729143;88;20209;-80
2022/08/14 14:58:23;;;;;;;1.50;1.12;;;36.70;62.30;;;;;;6735735;88;20258;-82
2022/08/14 15:08:25;;;;;;;1.70;1.30;;;36.50;61.40;;;;;;6761930;88;20290;-82
2022/08/14 15:18:25;;;;;;;1.52;1.12;;;36.40;61.50;;;;;;6758799;87;20424;-79
2022/08/14 15:28:26;;;;;;;2.33;1.30;;;35.00;62.60;;;;;;6740876;88;20232;-80
2022/08/14 15:38:27;;;;;;;1.83;1.30;;;33.80;63.60;;;;;;6747713;88;20184;-78
2022/08/14 15:48:29;;;;;;;1.80;1.33;;;33.60;64.20;;;;;;6702821;88;20767;-77
2022/08/14 15:58:29;;;;;;;1.92;1.30;;;33.70;63.50;;;;;;6741997;88;20217;-80
2022/08/14 16:08:30;;;;;;;1.60;1.33;;;33.60;62.60;;;;;;6743132;88;20216;-79
2022/08/14 16:18:35;;;;;;;2.00;1.17;;;33.40;62.90;;;;;;6726358;88;20538;-79
2022/08/14 16:28:35;;;;;;;1.50;1.20;;;33.50;63.30;;;;;;6726384;88;20204;-78
2022/08/14 16:38:40;;;;;;;1.70;1.20;;;33.30;63.30;;;;;;6675869;88;20320;-78
2022/08/14 16:48:41;;;;;;;1.73;1.17;;;33.20;62.80;;;;;;6670880;89;20194;-78
2022/08/14 16:58:41;;;;;;;1.70;1.00;;;32.60;62.50;;;;;;6670129;89;20282;-78
2022/08/14 17:08:42;;;;;;;1.90;1.20;;;32.20;62.30;;;;;;6670524;89;20183;-79
2022/08/14 17:18:46;;;;;;;1.42;1.00;;;32.00;62.50;;;;;;6685767;88;20265;-80
2022/08/14 17:29:22;;;;;;;1.87;1.40;;;32.00;63.30;;;;;;6696947;88;20214;-80
2022/08/14 17:39:23;;;;;;;1.50;1.08;;;32.00;62.80;;;;;;6742590;88;20192;-80
2022/08/14 17:49:28;;;;;;;1.50;1.10;;;32.20;64.20;;;;;;6747136;87;20250;-79
2022/08/14 17:59:30;;;;;;;2.30;1.35;;;31.70;64.10;;;;;;6732140;88;20204;-79
2022/08/14 18:09:31;;;;;;;1.75;1.17;;;31.50;64.20;;;;;;6734879;88;20296;-79
2022/08/14 18:19:34;;;;;;;1.60;1.10;;;31.00;64.70;;;;;;6735198;88;20237;-79
2022/08/14 18:29:43;;;;;;;1.55;1.20;;;30.60;66.00;;;;;;6729885;88;20618;-79
2022/08/14 18:39:44;;;;;;;2.00;1.30;;;30.40;66.70;;;;;;6728919;87;20645;-79
2022/08/14 18:50:04;;;;;;;2.10;1.00;;;29.90;67.20;;;;;;6732937;88;20267;-78
2022/08/14 19:00:32;;;;;;;1.80;1.30;;;29.50;67.50;;;;;;6737680;88;20235;-79
2022/08/14 19:10:33;;;;;;;2.47;1.45;;;29.20;67.50;;;;;;6740824;88;20185;-79
2022/08/14 19:20:54;;;;;;;2.00;1.40;;;29.10;67.40;;;;;;6743914;88;20192;-80
2022/08/14 19:31:32;;;;;;;2.17;1.20;;;28.80;68.70;;;;;;6735303;88;20397;-80
2022/08/14 19:41:35;;;;;;;1.75;1.30;;;28.50;69.40;;;;;;6691085;88;20181;-79
2022/08/14 19:51:43;;;;;;;4.68;1.50;;;28.20;70.10;;;;;;6747614;88;20313;-79
2022/08/14 20:01:49;;;;;;;1.87;1.20;;;27.80;71.20;;;;;;6745114;88;20974;-79
2022/08/14 20:11:50;;;;;;;2.37;1.33;;;27.50;71.20;;;;;;6749550;88;20645;-79
2022/08/14 20:21:53;;;;;;;2.03;1.40;;;26.90;73.00;;;;;;6744238;88;20736;-79
2022/08/14 20:31:58;;;;;;;2.17;1.30;;;26.80;72.60;;;;;;6741400;87;20259;-78
2022/08/14 20:45:17;;;;;;;2.33;1.42;;;26.70;73.90;;;;;;6746002;88;20197;-78
2022/08/14 20:52:28;;;;;;;2.20;1.70;;;26.40;75.00;;;;;;6741837;88;20315;-78
2022/08/14 21:02:36;;;;;;;2.05;1.20;;;25.90;76.30;;;;;;6729055;88;20419;-77
2022/08/14 21:12:38;;;;;;;2.00;1.40;;;25.70;76.20;;;;;;6725952;88;20231;-76
2022/08/14 21:22:43;;;;;;;2.53;1.50;;;25.40;77.30;;;;;;6722129;88;20679;-76
2022/08/14 21:32:44;;;;;;;2.45;1.52;;;25.20;77.40;;;;;;6727823;88;20208;-78
2022/08/14 21:42:44;;;;;;;2.28;1.60;;;24.80;78.60;;;;;;6724110;88;20209;-78
2022/08/14 21:52:45;;;;;;;2.37;1.30;;;24.80;78.60;;;;;;6723663;88;20185;-78
2022/08/14 22:02:51;;;;;;;2.17;1.47;;;24.70;79.30;;;;;;6725537;88;20545;-78
2022/08/14 22:12:52;;;;;;;2.50;1.58;;;24.50;79.90;;;;;;6730655;88;20509;-78
2022/08/14 22:22:53;;;;;;;2.87;1.40;;;24.20;80.10;;;;;;6729181;88;20199;-79
2022/08/14 22:32:55;;;;;;;2.00;1.40;;;24.40;79.00;;;;;;6732146;88;20200;-79
2022/08/14 22:42:56;;;;;;;1.92;1.25;;;24.20;79.90;;;;;;6725976;88;20205;-78
2022/08/14 22:52:58;;;;;;;2.45;1.67;;;24.10;80.40;;;;;;6736591;88;20301;-78
2022/08/14 23:03:01;;;;;;;1.92;1.23;;;24.00;80.70;;;;;;6739330;88;20324;-78
2022/08/14 23:13:04;;;;;;;1.90;1.20;;;23.90;80.90;;;;;;6735754;87;20196;-78
2022/08/14 23:23:13;;;;;;;1.83;1.20;;;23.70;81.00;;;;;;6721087;88;20188;-78
2022/08/14 23:33:17;;;;;;;1.98;1.27;;;23.90;80.00;;;;;;6739211;76;20197;-80
2022/08/14 23:43:18;;;;;;;2.00;1.20;;;23.70;81.50;;;;;;6736393;88;20243;-79
2022/08/14 23:53:23;;;;;;;2.42;1.42;;;23.70;81.90;;;;;;6725589;88;20718;-80
